High Tide — D5AA7 — position and weather

sailwx.info

Track history (hours):
 
Tides and Currents Weather Stations Pressure Air Temp Water Temp Dewpoint Dewpoint Depression Visibility Wind Speed Wind Dir Waves Ship Positions

High Tide

Last reported at 2018-Apr-18 21:56 UTC. Time now 2018-Apr-25 10:46 UTC.
Position N 29°08' W 094°27'.

Length 183 m; draft 10.9 m.

Type: Tanker. MMSI: 636015337.

Date/timePositionNaut miles runAvg speedWind from/ knotsBaromVisibWave heightAir tempDewpointWater temp
2018-Apr-18 21:56N 29°08' W 094°27'21 3.4
2018-Apr-18 15:49N 29°21' W 094°46'610.4
2018-Apr-18 15:18N 29°25' W 094°50'310.5
2018-Apr-18 15:01N 29°28' W 094°51'510.2
2018-Apr-18 14:31N 29°32' W 094°54'510.2
2018-Apr-18 14:01N 29°37' W 094°57'510.0
2018-Apr-18 13:30N 29°41' W 094°59'4 7.6
2018-Apr-18 13:00N 29°44' W 095°03'3 6.0
2018-Apr-18 12:29N 29°45' W 095°06'3 5.4
2018-Apr-18 12:00N 29°44' W 095°09'3 4.9
2018-Apr-18 11:27N 29°45' W 095°12'2 3.7
2018-Apr-18 10:59N 29°44' W 095°13'0 0.0
2018-Apr-18 03:01N 29°44' W 095°13'0 0.0
2018-Apr-18 02:52N 29°44' W 095°13'0 0.0
2018-Apr-18 02:22N 29°44' W 095°13'0 0.0
2018-Apr-17 07:04N 29°44' W 095°13'0 0.0
2018-Apr-17 05:34N 29°44' W 095°13'0 0.0
2018-Apr-15 14:19N 29°44' W 095°13'0 1.2
2018-Apr-15 13:57N 29°43' W 095°13'3 6.2
2018-Apr-15 13:30N 29°45' W 095°10'4 7.1
2018-Apr-15 13:00N 29°45' W 095°06'0 0.0
2018-Apr-14 16:48N 29°45' W 095°06'1 3.9
2018-Apr-14 16:30N 29°46' W 095°05'4 8.1
2018-Apr-14 16:00N 29°44' W 095°01'4 8.4
2018-Apr-14 15:30N 29°40' W 094°59'611.3
2018-Apr-14 15:00N 29°35' W 094°56'611.4
2018-Apr-14 14:30N 29°30' W 094°52'611.3
2018-Apr-14 14:00N 29°25' W 094°50'1510.6
2018-Apr-14 12:36N 29°17' W 094°35'2 9.4
2018-Apr-14 12:23N 29°16' W 094°33'6 6.8
2018-Apr-14 11:29N 29°10' W 094°35'1 0.0
2018-Apr-13 08:23N 29°10' W 094°36'0 0.0
2018-Apr-13 07:56N 29°10' W 094°36'0 0.0
2018-Apr-13 06:44N 29°10' W 094°36'0 0.0
2018-Apr-13 06:20N 29°10' W 094°36'0 0.0
2018-Apr-13 05:47N 29°10' W 094°36'0 0.0
2018-Apr-13 05:14N 29°10' W 094°36'0 0.0
2018-Apr-13 04:53N 29°10' W 094°36'0 0.0
2018-Apr-13 04:29N 29°10' W 094°36'0 0.0
2018-Apr-13 03:59N 29°10' W 094°36'0 0.0
2018-Apr-13 03:29N 29°10' W 094°36'0 0.0
2018-Apr-13 02:56N 29°10' W 094°36'0 0.0
2018-Apr-13 01:44N 29°10' W 094°36'0 0.0
2018-Apr-13 01:20N 29°10' W 094°36'0 0.0
2018-Apr-13 00:59N 29°10' W 094°36'0 0.0
2018-Apr-13 00:14N 29°10' W 094°36'0 0.0
2018-Apr-12 23:59N 29°10' W 094°36'0 0.0
2018-Apr-12 23:23N 29°10' W 094°36'0 0.0
2018-Apr-12 22:17N 29°10' W 094°36'0 0.0
2018-Apr-12 21:59N 29°10' W 094°36'0 0.0
2018-Apr-12 20:35N 29°10' W 094°36'0 0.0
2018-Apr-12 20:29N 29°10' W 094°36'0 0.0
2018-Apr-12 19:56N 29°10' W 094°36'0 0.0
2018-Apr-12 17:14N 29°10' W 094°36'0 0.0
2018-Apr-12 16:53N 29°10' W 094°36'0 0.0
2018-Apr-12 16:26N 29°10' W 094°36'0 0.0
2018-Apr-12 15:59N 29°10' W 094°36'0 0.0
2018-Apr-12 15:29N 29°10' W 094°36'0 0.0
2018-Apr-12 14:50N 29°10' W 094°36'0 0.0
2018-Apr-12 14:29N 29°10' W 094°36'0 0.0
2018-Apr-12 13:56N 29°10' W 094°36'0 0.0
2018-Apr-12 13:23N 29°10' W 094°36'0 0.0
2018-Apr-12 11:38N 29°10' W 094°36'0 0.0
2018-Apr-12 11:17N 29°10' W 094°36'0 0.0
2018-Apr-12 10:47N 29°10' W 094°36'0 0.0
2018-Apr-12 10:23N 29°10' W 094°36'0 0.0
2018-Apr-12 09:41N 29°10' W 094°36'0 0.0
2018-Apr-12 09:29N 29°10' W 094°36'0 0.0
2018-Apr-12 08:44N 29°10' W 094°36'0 0.0
2018-Apr-12 08:29N 29°10' W 094°36'0 0.0
2018-Apr-12 07:56N 29°10' W 094°36'0 0.0
2018-Apr-12 07:29N 29°10' W 094°36'0 0.0
2018-Apr-12 06:56N 29°10' W 094°36'0 0.0
2018-Apr-12 06:29N 29°10' W 094°36'0 0.0
2018-Apr-12 05:59N 29°10' W 094°36'0 0.0
2018-Apr-12 05:29N 29°10' W 094°36'0 0.1
2018-Apr-12 04:59N 29°10' W 094°36'1 1.9
2018-Apr-12 04:30N 29°09' W 094°36'3 5.4
2018-Apr-12 04:00N 29°07' W 094°34'3 5.8
2018-Apr-12 03:30N 29°07' W 094°31'4 7.9
2018-Apr-12 02:59N 29°07' W 094°26'4 8.1
2018-Apr-12 02:30N 29°08' W 094°22'4 7.7
2018-Apr-12 02:00N 29°06' W 094°18'510.0
2018-Apr-12 01:30N 29°03' W 094°13'714.1
2018-Apr-12 01:00N 28°59' W 094°07'1013.9
2018-Apr-12 00:18N 28°53' W 093°58'414.1
2018-Apr-11 23:59N 28°51' W 093°53'714.1
2018-Apr-11 23:30N 28°47' W 093°47'1213.9
2018-Apr-11 22:39N 28°41' W 093°36'  
Track history (hours):
 
Tides and Currents Weather Stations Pressure Air Temp Water Temp Dewpoint Dewpoint Depression Visibility Wind Speed Wind Dir Waves Ship Positions

High Tide

Last reported at 2018-Apr-18 21:56 UTC. Time now 2018-Apr-25 10:46 UTC.
Position N 29°08' W 094°27'.

Length 183 m; draft 10.9 m.

Type: Tanker. MMSI: 636015337.

Date/timePositionNaut miles runAvg speedWind from/ knotsBaromVisibWave heightAir tempDewpointWater temp
2018-Apr-18 21:56N 29°08' W 094°27'21 3.4
2018-Apr-18 15:49N 29°21' W 094°46'610.4
2018-Apr-18 15:18N 29°25' W 094°50'310.5
2018-Apr-18 15:01N 29°28' W 094°51'510.2
2018-Apr-18 14:31N 29°32' W 094°54'510.2
2018-Apr-18 14:01N 29°37' W 094°57'510.0
2018-Apr-18 13:30N 29°41' W 094°59'4 7.6
2018-Apr-18 13:00N 29°44' W 095°03'3 6.0
2018-Apr-18 12:29N 29°45' W 095°06'3 5.4
2018-Apr-18 12:00N 29°44' W 095°09'3 4.9
2018-Apr-18 11:27N 29°45' W 095°12'2 3.7
2018-Apr-18 10:59N 29°44' W 095°13'0 0.0
2018-Apr-18 03:01N 29°44' W 095°13'0 0.0
2018-Apr-18 02:52N 29°44' W 095°13'0 0.0
2018-Apr-18 02:22N 29°44' W 095°13'0 0.0
2018-Apr-17 07:04N 29°44' W 095°13'0 0.0
2018-Apr-17 05:34N 29°44' W 095°13'0 0.0
2018-Apr-15 14:19N 29°44' W 095°13'0 1.2
2018-Apr-15 13:57N 29°43' W 095°13'3 6.2
2018-Apr-15 13:30N 29°45' W 095°10'4 7.1
2018-Apr-15 13:00N 29°45' W 095°06'0 0.0
2018-Apr-14 16:48N 29°45' W 095°06'1 3.9
2018-Apr-14 16:30N 29°46' W 095°05'4 8.1
2018-Apr-14 16:00N 29°44' W 095°01'4 8.4
2018-Apr-14 15:30N 29°40' W 094°59'611.3
2018-Apr-14 15:00N 29°35' W 094°56'611.4
2018-Apr-14 14:30N 29°30' W 094°52'611.3
2018-Apr-14 14:00N 29°25' W 094°50'1510.6
2018-Apr-14 12:36N 29°17' W 094°35'2 9.4
2018-Apr-14 12:23N 29°16' W 094°33'6 6.8
2018-Apr-14 11:29N 29°10' W 094°35'1 0.0
2018-Apr-13 08:23N 29°10' W 094°36'0 0.0
2018-Apr-13 07:56N 29°10' W 094°36'0 0.0
2018-Apr-13 06:44N 29°10' W 094°36'0 0.0
2018-Apr-13 06:20N 29°10' W 094°36'0 0.0
2018-Apr-13 05:47N 29°10' W 094°36'0 0.0
2018-Apr-13 05:14N 29°10' W 094°36'0 0.0
2018-Apr-13 04:53N 29°10' W 094°36'0 0.0
2018-Apr-13 04:29N 29°10' W 094°36'0 0.0
2018-Apr-13 03:59N 29°10' W 094°36'0 0.0
2018-Apr-13 03:29N 29°10' W 094°36'0 0.0
2018-Apr-13 02:56N 29°10' W 094°36'0 0.0
2018-Apr-13 01:44N 29°10' W 094°36'0 0.0
2018-Apr-13 01:20N 29°10' W 094°36'0 0.0
2018-Apr-13 00:59N 29°10' W 094°36'0 0.0
2018-Apr-13 00:14N 29°10' W 094°36'0 0.0
2018-Apr-12 23:59N 29°10' W 094°36'0 0.0
2018-Apr-12 23:23N 29°10' W 094°36'0 0.0
2018-Apr-12 22:17N 29°10' W 094°36'0 0.0
2018-Apr-12 21:59N 29°10' W 094°36'0 0.0
2018-Apr-12 20:35N 29°10' W 094°36'0 0.0
2018-Apr-12 20:29N 29°10' W 094°36'0 0.0
2018-Apr-12 19:56N 29°10' W 094°36'0 0.0
2018-Apr-12 17:14N 29°10' W 094°36'0 0.0
2018-Apr-12 16:53N 29°10' W 094°36'0 0.0
2018-Apr-12 16:26N 29°10' W 094°36'0 0.0
2018-Apr-12 15:59N 29°10' W 094°36'0 0.0
2018-Apr-12 15:29N 29°10' W 094°36'0 0.0
2018-Apr-12 14:50N 29°10' W 094°36'0 0.0
2018-Apr-12 14:29N 29°10' W 094°36'0 0.0
2018-Apr-12 13:56N 29°10' W 094°36'0 0.0
2018-Apr-12 13:23N 29°10' W 094°36'0 0.0
2018-Apr-12 11:38N 29°10' W 094°36'0 0.0
2018-Apr-12 11:17N 29°10' W 094°36'0 0.0
2018-Apr-12 10:47N 29°10' W 094°36'0 0.0
2018-Apr-12 10:23N 29°10' W 094°36'0 0.0
2018-Apr-12 09:41N 29°10' W 094°36'0 0.0
2018-Apr-12 09:29N 29°10' W 094°36'0 0.0
2018-Apr-12 08:44N 29°10' W 094°36'0 0.0
2018-Apr-12 08:29N 29°10' W 094°36'0 0.0
2018-Apr-12 07:56N 29°10' W 094°36'0 0.0
2018-Apr-12 07:29N 29°10' W 094°36'0 0.0
2018-Apr-12 06:56N 29°10' W 094°36'0 0.0
2018-Apr-12 06:29N 29°10' W 094°36'0 0.0
2018-Apr-12 05:59N 29°10' W 094°36'0 0.0
2018-Apr-12 05:29N 29°10' W 094°36'0 0.1
2018-Apr-12 04:59N 29°10' W 094°36'1 1.9
2018-Apr-12 04:30N 29°09' W 094°36'3 5.4
2018-Apr-12 04:00N 29°07' W 094°34'3 5.8
2018-Apr-12 03:30N 29°07' W 094°31'4 7.9
2018-Apr-12 02:59N 29°07' W 094°26'4 8.1
2018-Apr-12 02:30N 29°08' W 094°22'4 7.7
2018-Apr-12 02:00N 29°06' W 094°18'510.0
2018-Apr-12 01:30N 29°03' W 094°13'714.1
2018-Apr-12 01:00N 28°59' W 094°07'1013.9
2018-Apr-12 00:18N 28°53' W 093°58'414.1
2018-Apr-11 23:59N 28°51' W 093°53'714.1
2018-Apr-11 23:30N 28°47' W 093°47'1213.9
2018-Apr-11 22:39N 28°41' W 093°36'  

Dump ship's entire track history